createdAt,value
2022-07-31T00:00:19.258Z,68.99
2022-07-31T00:02:46.782Z,68.99
2022-07-31T00:05:13.958Z,69.13
2022-07-31T00:07:40.937Z,69.07
2022-07-31T00:10:08.181Z,68.98
2022-07-31T00:12:35.214Z,68.83
2022-07-31T00:15:04.324Z,69.06
2022-07-31T00:17:32.771Z,68.97
2022-07-31T00:19:59.623Z,69.03
2022-07-31T00:22:26.393Z,69.10
2022-07-31T00:24:53.124Z,69.43
2022-07-31T00:27:19.902Z,69.46
2022-07-31T00:29:46.742Z,69.65
2022-07-31T00:32:13.492Z,69.45
2022-07-31T00:34:40.213Z,69.68
2022-07-31T00:37:07.119Z,69.54
2022-07-31T00:39:34.189Z,69.72
2022-07-31T00:42:00.839Z,69.31
2022-07-31T00:44:27.613Z,69.66
2022-07-31T00:46:54.612Z,69.65
2022-07-31T00:49:22.313Z,69.20
2022-07-31T00:51:49.223Z,69.38
2022-07-31T00:54:23.049Z,69.08
2022-07-31T00:56:51.263Z,69.49
2022-07-31T00:59:24.305Z,69.72
2022-07-31T01:01:51.770Z,69.71
2022-07-31T01:04:19.057Z,69.68
2022-07-31T01:06:47.262Z,70.01
2022-07-31T01:09:14.722Z,70.35
2022-07-31T01:11:50.651Z,70.45
2022-07-31T01:14:20.641Z,70.81
2022-07-31T01:16:49.972Z,70.97
2022-07-31T01:19:39.671Z,71.16
2022-07-31T01:22:33.362Z,71.35
2022-07-31T01:25:07.812Z,71.70
2022-07-31T01:28:14.007Z,72.22
2022-07-31T01:30:53.023Z,71.99
2022-07-31T01:33:32.752Z,72.40
2022-07-31T01:36:06.703Z,72.00
2022-07-31T01:38:42.417Z,72.07
2022-07-31T01:41:14.971Z,72.26
2022-07-31T01:43:44.284Z,72.06
2022-07-31T01:46:14.059Z,72.03
2022-07-31T01:48:41.574Z,72.26
2022-07-31T01:51:09.812Z,72.61
2022-07-31T01:53:39.036Z,72.45
2022-07-31T01:56:07.501Z,72.12
2022-07-31T01:58:38.041Z,72.35
2022-07-31T02:01:08.918Z,72.53
2022-07-31T02:03:43.891Z,72.64
2022-07-31T02:06:17.106Z,72.63
2022-07-31T02:08:50.446Z,72.31
2022-07-31T02:11:19.995Z,71.55
2022-07-31T02:13:48.325Z,71.07
2022-07-31T02:16:17.369Z,70.73
2022-07-31T02:18:44.122Z,71.11
2022-07-31T02:21:11.054Z,71.21
2022-07-31T02:23:38.481Z,72.25
2022-07-31T02:26:07.181Z,72.75
2022-07-31T02:28:37.947Z,72.38
2022-07-31T02:31:10.194Z,72.50
2022-07-31T02:33:38.106Z,72.55
2022-07-31T02:36:06.615Z,72.90
2022-07-31T02:38:34.782Z,73.20
2022-07-31T02:41:05.098Z,73.58
2022-07-31T02:43:34.886Z,73.89
2022-07-31T02:46:03.214Z,74.21
2022-07-31T02:48:30.991Z,74.35
2022-07-31T02:50:58.443Z,74.65
2022-07-31T02:53:25.690Z,74.44
2022-07-31T02:55:52.801Z,74.40
2022-07-31T02:58:19.993Z,74.44
2022-07-31T03:00:46.934Z,74.55
2022-07-31T03:03:14.114Z,74.85
2022-07-31T03:05:40.968Z,74.80
2022-07-31T03:08:07.696Z,74.76
2022-07-31T03:10:34.522Z,74.70
2022-07-31T03:13:02.675Z,74.83
2022-07-31T03:15:32.032Z,75.18
2022-07-31T03:17:59.148Z,75.24
2022-07-31T03:20:26.919Z,75.21
2022-07-31T03:22:53.980Z,75.15
2022-07-31T03:25:21.915Z,75.30
2022-07-31T03:27:56.142Z,75.43
2022-07-31T03:30:27.415Z,75.55
2022-07-31T03:32:57.833Z,75.56
2022-07-31T03:35:25.353Z,75.39
2022-07-31T03:37:55.597Z,75.38
2022-07-31T03:40:22.461Z,75.54
2022-07-31T03:42:50.260Z,75.53
2022-07-31T03:45:18.688Z,74.60
2022-07-31T03:47:45.462Z,74.26
2022-07-31T03:50:13.276Z,74.03
2022-07-31T03:52:40.144Z,73.57
2022-07-31T03:55:08.493Z,73.39
2022-07-31T03:57:37.208Z,73.20
2022-07-31T04:00:07.921Z,72.86
2022-07-31T04:02:44.497Z,73.00
2022-07-31T04:05:11.400Z,72.81
2022-07-31T04:07:38.095Z,72.74
2022-07-31T04:10:05.159Z,72.58
2022-07-31T04:12:31.858Z,72.48
2022-07-31T04:14:58.587Z,72.21
2022-07-31T04:17:25.426Z,71.75
2022-07-31T04:19:52.186Z,71.33
2022-07-31T04:22:19.118Z,71.04
2022-07-31T04:24:45.804Z,70.30
2022-07-31T04:27:15.081Z,69.74
2022-07-31T04:29:42.022Z,69.11
2022-07-31T04:32:08.727Z,68.73
2022-07-31T04:34:36.005Z,68.30
2022-07-31T04:37:03.226Z,68.30
2022-07-31T04:39:30.103Z,68.13
2022-07-31T04:41:56.975Z,67.46
2022-07-31T04:44:23.979Z,67.87
2022-07-31T04:46:50.766Z,67.96
2022-07-31T04:49:17.670Z,68.05
2022-07-31T04:51:44.512Z,67.91
2022-07-31T04:54:11.339Z,67.95
2022-07-31T04:56:42.160Z,67.97
2022-07-31T04:59:11.831Z,67.97
2022-07-31T05:01:39.602Z,67.73
2022-07-31T05:04:08.182Z,67.58
2022-07-31T05:06:47.098Z,67.11
2022-07-31T05:09:23.577Z,67.23
2022-07-31T05:11:52.947Z,67.36
2022-07-31T05:14:21.461Z,67.20
2022-07-31T05:16:48.728Z,66.77
2022-07-31T05:19:15.846Z,66.66
2022-07-31T05:21:54.069Z,67.16
2022-07-31T05:24:33.396Z,67.26
2022-07-31T05:27:02.369Z,67.11
2022-07-31T05:29:29.711Z,67.23
2022-07-31T05:31:59.725Z,67.26
2022-07-31T05:34:36.815Z,66.78
2022-07-31T05:37:03.906Z,66.54
2022-07-31T05:39:30.913Z,66.37
2022-07-31T05:41:57.737Z,65.77
2022-07-31T05:44:24.712Z,65.60
2022-07-31T05:49:18.027Z,65.08
2022-07-31T05:51:45.441Z,64.96
2022-07-31T05:54:12.285Z,65.51
2022-07-31T05:56:39.141Z,64.76
2022-07-31T05:59:05.926Z,64.53
2022-07-31T06:01:32.861Z,64.14
2022-07-31T06:03:59.762Z,63.88
2022-07-31T06:06:26.514Z,65.04
2022-07-31T06:08:53.192Z,64.47
2022-07-31T06:11:20.228Z,64.18
2022-07-31T06:13:46.919Z,63.80
2022-07-31T06:16:14.970Z,63.73
2022-07-31T06:18:42.532Z,63.82
2022-07-31T06:21:09.735Z,63.08
2022-07-31T06:23:36.576Z,63.04
2022-07-31T06:26:04.287Z,62.43
2022-07-31T06:28:47.913Z,62.05
2022-07-31T06:31:20.838Z,61.15
2022-07-31T06:33:51.003Z,60.74
2022-07-31T06:36:19.492Z,60.25
2022-07-31T06:38:46.375Z,60.21
2022-07-31T06:41:33.574Z,60.95
2022-07-31T06:44:00.353Z,59.79
2022-07-31T06:46:27.126Z,59.97
2022-07-31T06:48:53.880Z,59.60
2022-07-31T06:51:30.707Z,59.86
2022-07-31T06:53:59.567Z,59.32
2022-07-31T06:56:26.273Z,59.16
2022-07-31T06:58:53.340Z,58.33
2022-07-31T07:01:20.193Z,59.12
2022-07-31T07:03:47.607Z,59.54
2022-07-31T07:06:14.992Z,60.07
2022-07-31T07:08:42.521Z,58.89
2022-07-31T07:11:12.311Z,59.96
2022-07-31T07:13:45.876Z,58.25
2022-07-31T07:16:14.693Z,58.16
2022-07-31T07:18:41.469Z,57.87
2022-07-31T07:21:08.167Z,58.66
2022-07-31T07:23:35.902Z,59.77
2022-07-31T07:26:03.091Z,59.93
2022-07-31T07:28:31.119Z,58.16
2022-07-31T07:30:58.113Z,59.03
2022-07-31T07:33:39.728Z,59.02
2022-07-31T07:36:08.960Z,57.89
2022-07-31T07:38:55.611Z,59.05
2022-07-31T07:41:24.282Z,58.65
2022-07-31T07:43:52.378Z,58.18
2022-07-31T07:46:23.548Z,56.28
2022-07-31T07:48:51.677Z,56.32
2022-07-31T07:51:19.506Z,57.42
2022-07-31T07:53:46.549Z,57.35
2022-07-31T07:56:13.262Z,58.43
2022-07-31T07:58:40.774Z,57.42
2022-07-31T08:01:07.759Z,59.51
2022-07-31T08:03:48.967Z,58.79
2022-07-31T08:06:20.192Z,58.71
2022-07-31T08:08:47.412Z,59.35
2022-07-31T08:11:17.461Z,58.61
2022-07-31T08:13:50.074Z,58.71
2022-07-31T08:16:17.147Z,58.25
2022-07-31T08:18:43.828Z,58.22
2022-07-31T08:21:10.602Z,58.47
2022-07-31T08:23:37.811Z,58.01
2022-07-31T08:26:04.608Z,59.07
2022-07-31T08:28:33.409Z,58.50
2022-07-31T08:31:01.879Z,59.32
2022-07-31T08:33:28.708Z,58.73
2022-07-31T08:35:55.665Z,57.80
2022-07-31T08:38:22.373Z,57.89
2022-07-31T08:40:49.164Z,57.17
2022-07-31T08:46:04.678Z,56.07
2022-07-31T08:48:33.279Z,56.00
2022-07-31T08:51:03.465Z,56.83
2022-07-31T08:53:32.974Z,56.93
2022-07-31T08:56:00.491Z,56.45
2022-07-31T08:58:27.355Z,53.22
2022-07-31T09:00:54.911Z,52.43
2022-07-31T09:03:21.711Z,53.51
2022-07-31T09:05:48.878Z,53.29
2022-07-31T09:08:15.779Z,50.64
2022-07-31T09:10:49.103Z,50.22
2022-07-31T09:13:18.150Z,48.39
2022-07-31T09:15:45.211Z,46.73
2022-07-31T09:18:22.137Z,47.11
2022-07-31T09:20:58.197Z,46.22
2022-07-31T09:23:26.573Z,46.80
2022-07-31T09:26:07.537Z,44.90
2022-07-31T09:28:39.535Z,45.47
2022-07-31T09:31:08.773Z,45.81
2022-07-31T09:33:45.210Z,45.60
2022-07-31T09:36:13.704Z,45.54
2022-07-31T09:38:43.272Z,45.42
2022-07-31T09:41:23.160Z,43.82
2022-07-31T09:44:10.544Z,39.60
2022-07-31T09:46:46.655Z,37.43
2022-07-31T09:49:14.372Z,37.95
2022-07-31T09:51:43.246Z,36.60
2022-07-31T09:54:27.315Z,36.74
2022-07-31T09:56:54.092Z,36.86
2022-07-31T09:59:21.056Z,34.70
2022-07-31T10:01:49.130Z,33.34
2022-07-31T10:04:21.358Z,33.76
2022-07-31T10:06:51.176Z,32.78
2022-07-31T10:09:21.608Z,31.28
2022-07-31T10:11:50.143Z,30.42
2022-07-31T10:14:22.455Z,31.67
2022-07-31T10:16:52.672Z,30.55
2022-07-31T10:19:20.669Z,32.79
2022-07-31T10:21:57.193Z,30.55
2022-07-31T10:24:28.289Z,30.89
2022-07-31T10:27:10.842Z,34.88
2022-07-31T10:29:40.514Z,36.49
2022-07-31T10:32:11.507Z,35.34
2022-07-31T10:34:38.976Z,36.40
2022-07-31T10:37:34.843Z,35.95
2022-07-31T10:40:06.674Z,36.67
2022-07-31T10:42:42.898Z,36.29
2022-07-31T10:45:16.567Z,38.46
2022-07-31T10:47:57.304Z,40.23
2022-07-31T10:50:25.900Z,39.01
2022-07-31T10:52:57.290Z,37.82
2022-07-31T10:55:27.198Z,38.37
2022-07-31T10:57:56.203Z,38.42
2022-07-31T11:00:28.523Z,37.36
2022-07-31T11:02:57.001Z,40.39
2022-07-31T11:05:28.572Z,39.03
2022-07-31T11:08:06.165Z,40.01
2022-07-31T11:10:34.153Z,40.48
2022-07-31T11:13:07.491Z,39.65
2022-07-31T11:15:34.759Z,38.48
2022-07-31T11:18:24.868Z,36.99
2022-07-31T11:21:09.474Z,36.18
2022-07-31T11:23:57.672Z,33.92
2022-07-31T11:26:33.294Z,36.21
2022-07-31T11:29:58.942Z,36.31
2022-07-31T11:31:55.545Z,36.80
2022-07-31T11:34:22.407Z,36.02
2022-07-31T11:36:51.722Z,36.68
2022-07-31T11:39:19.049Z,37.99
2022-07-31T11:41:53.667Z,36.92
2022-07-31T11:44:21.810Z,35.38
2022-07-31T11:46:50.147Z,35.64
2022-07-31T11:49:41.666Z,34.25
2022-07-31T11:52:31.073Z,34.18
2022-07-31T11:55:10.955Z,34.08
2022-07-31T11:57:52.292Z,34.79
2022-07-31T12:00:26.662Z,34.62
2022-07-31T12:02:57.391Z,33.83
2022-07-31T12:05:37.616Z,34.25
2022-07-31T12:08:08.002Z,33.07
2022-07-31T12:10:35.332Z,32.48
2022-07-31T12:13:02.987Z,32.38
2022-07-31T12:15:29.832Z,32.90
2022-07-31T12:18:05.280Z,32.55
2022-07-31T12:20:37.248Z,32.04
2022-07-31T12:23:05.703Z,33.56
2022-07-31T12:25:46.437Z,32.06
2022-07-31T12:28:14.690Z,31.22
2022-07-31T12:30:42.443Z,32.06
2022-07-31T12:33:11.485Z,31.23
2022-07-31T12:35:56.284Z,31.95
2022-07-31T12:38:41.063Z,33.41
2022-07-31T12:41:12.694Z,31.60
2022-07-31T12:43:43.848Z,31.83
2022-07-31T12:46:23.148Z,30.47
2022-07-31T12:48:50.232Z,30.86
2022-07-31T12:51:20.221Z,31.39
2022-07-31T12:54:08.010Z,30.50
2022-07-31T12:56:37.158Z,31.91
2022-07-31T12:59:04.708Z,32.69
2022-07-31T13:01:31.823Z,30.91
2022-07-31T13:03:59.002Z,30.35
2022-07-31T13:06:30.486Z,29.71
2022-07-31T13:08:57.770Z,31.39
2022-07-31T13:11:46.822Z,31.72
2022-07-31T13:14:19.628Z,32.64
2022-07-31T13:16:47.799Z,32.47
2022-07-31T13:19:15.477Z,32.06
2022-07-31T13:21:48.488Z,33.89
2022-07-31T13:24:21.133Z,32.75
2022-07-31T13:26:49.907Z,33.36
2022-07-31T13:29:17.725Z,33.26
2022-07-31T13:31:44.796Z,33.01
2022-07-31T13:34:11.875Z,34.82
2022-07-31T13:36:39.782Z,34.36
2022-07-31T13:39:08.196Z,34.57
2022-07-31T13:41:35.620Z,35.40
2022-07-31T13:44:03.266Z,36.98
2022-07-31T13:46:31.593Z,36.68
2022-07-31T13:49:01.033Z,37.48
2022-07-31T13:51:29.454Z,38.36
2022-07-31T13:53:56.274Z,38.20
2022-07-31T13:56:39.637Z,37.37
2022-07-31T13:59:13.604Z,37.69
2022-07-31T14:02:03.359Z,37.47
2022-07-31T14:04:30.323Z,37.87
2022-07-31T14:07:04.272Z,39.21
2022-07-31T14:09:34.679Z,39.07
2022-07-31T14:12:03.826Z,38.46
2022-07-31T14:14:32.387Z,38.23
2022-07-31T14:16:59.143Z,39.30
2022-07-31T14:19:26.032Z,38.37
2022-07-31T14:21:56.423Z,38.22
2022-07-31T14:24:24.978Z,40.13
2022-07-31T14:26:51.794Z,38.77
2022-07-31T14:29:18.688Z,40.15
2022-07-31T14:31:45.371Z,37.98
2022-07-31T14:34:12.096Z,37.33
2022-07-31T14:36:38.976Z,36.61
2022-07-31T14:39:05.957Z,36.69
2022-07-31T14:41:32.697Z,39.62
2022-07-31T14:43:59.964Z,38.56
2022-07-31T14:46:26.739Z,38.54
2022-07-31T14:48:53.895Z,38.62
2022-07-31T14:51:20.803Z,37.88
2022-07-31T14:53:47.910Z,39.10
2022-07-31T14:56:19.301Z,40.60
2022-07-31T14:58:57.691Z,39.90
2022-07-31T15:01:26.915Z,39.80
2022-07-31T15:03:58.208Z,39.57
2022-07-31T15:06:41.512Z,40.23
2022-07-31T15:09:15.024Z,39.85
2022-07-31T15:12:00.969Z,37.44
2022-07-31T15:14:29.827Z,40.04
2022-07-31T15:16:57.087Z,40.03
2022-07-31T15:19:25.361Z,40.75
2022-07-31T15:22:15.747Z,41.70
2022-07-31T15:24:45.534Z,42.44
2022-07-31T15:27:15.910Z,41.13
2022-07-31T15:30:05.865Z,41.84
2022-07-31T15:32:29.890Z,41.92
2022-07-31T15:34:57.594Z,41.51
2022-07-31T15:37:24.330Z,42.58
2022-07-31T15:40:02.198Z,42.16
2022-07-31T15:42:33.346Z,42.17
2022-07-31T15:45:01.206Z,42.37
2022-07-31T15:47:28.224Z,41.16
2022-07-31T15:49:55.487Z,41.72
2022-07-31T15:52:22.711Z,41.97
2022-07-31T15:54:51.688Z,41.57
2022-07-31T15:57:23.821Z,42.45
2022-07-31T15:59:54.475Z,42.80
2022-07-31T16:02:22.456Z,42.97
2022-07-31T16:04:53.455Z,42.54
2022-07-31T16:08:29.640Z,42.68
2022-07-31T16:10:15.185Z,41.88
2022-07-31T16:12:47.987Z,42.16
2022-07-31T16:15:16.542Z,42.86
2022-07-31T16:17:44.092Z,42.89
2022-07-31T16:20:26.684Z,42.26
2022-07-31T16:22:55.966Z,43.23
2022-07-31T16:25:24.129Z,44.26
2022-07-31T16:27:50.853Z,43.59
2022-07-31T16:30:17.693Z,44.21
2022-07-31T16:32:44.973Z,44.13
2022-07-31T16:35:12.578Z,43.74
2022-07-31T16:37:50.252Z,44.61
2022-07-31T16:40:30.104Z,44.12
2022-07-31T16:43:50.053Z,44.87
2022-07-31T16:45:52.104Z,45.19
2022-07-31T16:48:19.155Z,44.89
2022-07-31T16:50:48.129Z,45.08
2022-07-31T16:54:11.135Z,45.16
2022-07-31T16:56:12.159Z,44.73
2022-07-31T16:58:39.463Z,45.42
2022-07-31T17:01:53.231Z,46.25
2022-07-31T17:04:01.917Z,46.31
2022-07-31T17:06:34.722Z,46.00
2022-07-31T17:09:16.241Z,45.68
2022-07-31T17:11:48.410Z,45.84
2022-07-31T17:14:16.147Z,46.28
2022-07-31T17:16:47.096Z,46.92
2022-07-31T17:19:16.816Z,46.23
2022-07-31T17:22:04.831Z,45.68
2022-07-31T17:24:31.815Z,45.86
2022-07-31T17:26:59.723Z,45.49
2022-07-31T17:29:26.711Z,44.90
2022-07-31T17:31:53.507Z,45.03
2022-07-31T17:34:20.226Z,44.64
2022-07-31T17:36:50.033Z,44.80
2022-07-31T17:39:17.071Z,45.30
2022-07-31T17:41:44.117Z,45.67
2022-07-31T17:44:11.034Z,45.86
2022-07-31T17:46:43.877Z,45.91
2022-07-31T17:49:20.559Z,45.84
2022-07-31T17:51:58.869Z,45.93
2022-07-31T17:54:35.050Z,46.32
2022-07-31T17:57:02.553Z,46.27
2022-07-31T17:59:30.387Z,46.80
2022-07-31T18:02:01.103Z,49.23
2022-07-31T18:04:29.532Z,49.27
2022-07-31T18:06:57.632Z,49.70
2022-07-31T18:09:25.065Z,50.13
2022-07-31T18:11:52.674Z,49.24
2022-07-31T18:14:20.112Z,49.11
2022-07-31T18:16:47.522Z,49.68
2022-07-31T18:19:14.669Z,51.01
2022-07-31T18:21:41.617Z,52.98
2022-07-31T18:24:08.702Z,57.19
2022-07-31T18:26:36.077Z,58.53
2022-07-31T18:29:03.575Z,60.31
2022-07-31T18:31:34.394Z,61.65
2022-07-31T18:34:04.471Z,62.50
2022-07-31T18:36:33.052Z,63.03
2022-07-31T18:38:59.973Z,64.68
2022-07-31T18:41:27.479Z,66.04
2022-07-31T18:43:54.825Z,66.30
2022-07-31T18:46:23.678Z,64.95
2022-07-31T18:48:55.421Z,66.32
2022-07-31T18:51:24.003Z,66.69
2022-07-31T18:53:51.488Z,68.18
2022-07-31T18:56:21.340Z,70.45
2022-07-31T18:58:48.221Z,71.64
2022-07-31T19:01:15.026Z,73.07
2022-07-31T19:03:41.722Z,72.73
2022-07-31T19:06:08.591Z,72.68
2022-07-31T19:08:35.236Z,72.96
2022-07-31T19:11:02.081Z,73.31
2022-07-31T19:13:29.223Z,73.80
2022-07-31T19:15:56.487Z,74.49
2022-07-31T19:18:28.670Z,74.99
2022-07-31T19:21:21.254Z,75.08
2022-07-31T19:23:43.977Z,75.73
2022-07-31T19:26:11.040Z,75.85
2022-07-31T19:28:39.549Z,76.09
2022-07-31T19:31:07.287Z,77.13
2022-07-31T19:33:34.085Z,77.56
2022-07-31T19:36:02.861Z,78.38
2022-07-31T19:38:31.903Z,78.49
2022-07-31T19:40:59.529Z,78.29
2022-07-31T19:43:26.571Z,78.45
2022-07-31T19:46:09.678Z,78.17
2022-07-31T19:48:43.815Z,78.40
2022-07-31T19:51:11.611Z,78.63
2022-07-31T19:53:39.384Z,78.88
2022-07-31T19:56:06.624Z,79.54
2022-07-31T19:58:35.067Z,79.65
2022-07-31T20:01:03.197Z,79.50
2022-07-31T20:03:30.248Z,79.73
2022-07-31T20:05:57.732Z,79.73
2022-07-31T20:08:24.467Z,80.04
2022-07-31T20:10:51.666Z,79.90
2022-07-31T20:13:19.262Z,79.84
2022-07-31T20:15:51.939Z,79.86
2022-07-31T20:18:27.603Z,79.77
2022-07-31T20:20:57.479Z,79.80
2022-07-31T20:23:25.586Z,79.98
2022-07-31T20:25:52.417Z,80.43
2022-07-31T20:28:19.368Z,80.56
2022-07-31T20:30:46.457Z,80.81
2022-07-31T20:33:13.636Z,80.75
2022-07-31T20:35:48.051Z,80.75
2022-07-31T20:38:21.594Z,81.06
2022-07-31T20:40:53.588Z,80.84
2022-07-31T20:43:26.765Z,82.11
2022-07-31T20:45:57.267Z,82.14
2022-07-31T20:48:31.120Z,81.57
2022-07-31T20:51:03.412Z,80.99
2022-07-31T20:53:30.819Z,81.63
2022-07-31T20:55:58.705Z,81.75
2022-07-31T20:58:26.567Z,81.76
2022-07-31T21:00:54.230Z,81.65
2022-07-31T21:03:21.376Z,81.79
2022-07-31T21:05:48.356Z,82.29
2022-07-31T21:08:16.157Z,81.88
2022-07-31T21:10:43.052Z,81.20
2022-07-31T21:13:10.224Z,81.15
2022-07-31T21:15:43.828Z,81.47
2022-07-31T21:18:16.179Z,81.82
2022-07-31T21:20:51.197Z,81.84
2022-07-31T21:23:23.745Z,82.10
2022-07-31T21:25:54.608Z,82.06
2022-07-31T21:28:22.136Z,82.17
2022-07-31T21:30:49.760Z,82.21
2022-07-31T21:33:18.291Z,82.22
2022-07-31T21:35:46.396Z,81.97
2022-07-31T21:38:15.649Z,80.15
2022-07-31T21:40:43.358Z,81.54
2022-07-31T21:43:10.348Z,81.81
2022-07-31T21:45:50.325Z,81.05
2022-07-31T21:48:23.375Z,80.40
2022-07-31T21:50:50.880Z,79.94
2022-07-31T21:53:17.675Z,81.65
2022-07-31T21:55:44.452Z,82.20
2022-07-31T21:58:11.414Z,82.59
2022-07-31T22:00:38.335Z,82.71
2022-07-31T22:03:05.750Z,82.96
2022-07-31T22:05:52.015Z,82.81
2022-07-31T22:08:19.712Z,82.75
2022-07-31T22:10:49.125Z,82.91
2022-07-31T22:13:15.878Z,82.84
2022-07-31T22:15:50.419Z,82.86
2022-07-31T22:18:31.000Z,83.12
2022-07-31T22:20:58.758Z,82.98
2022-07-31T22:23:26.998Z,83.13
2022-07-31T22:25:54.327Z,83.30
2022-07-31T22:28:23.085Z,83.07
2022-07-31T22:30:50.907Z,82.98
2022-07-31T22:33:18.482Z,83.74
2022-07-31T22:35:58.604Z,84.31
2022-07-31T22:38:29.410Z,83.83
2022-07-31T22:40:56.747Z,83.42
2022-07-31T22:44:10.751Z,83.46
2022-07-31T22:46:13.917Z,83.38
2022-07-31T22:48:41.204Z,83.27
2022-07-31T22:51:09.056Z,83.06
2022-07-31T22:53:37.596Z,83.22
2022-07-31T22:56:04.550Z,83.26
2022-07-31T22:58:31.412Z,83.39
2022-07-31T23:00:58.058Z,83.53
2022-07-31T23:03:24.871Z,83.71
2022-07-31T23:06:02.872Z,83.58
2022-07-31T23:08:38.518Z,83.55
2022-07-31T23:11:05.359Z,83.57
2022-07-31T23:13:32.115Z,83.34
2022-07-31T23:15:59.523Z,83.45
2022-07-31T23:18:26.566Z,83.49
2022-07-31T23:20:53.326Z,82.80
2022-07-31T23:23:20.056Z,82.36
2022-07-31T23:25:46.758Z,81.92
2022-07-31T23:28:13.470Z,82.28
2022-07-31T23:30:40.411Z,81.61
2022-07-31T23:33:07.156Z,81.63
2022-07-31T23:35:33.941Z,82.26
2022-07-31T23:38:00.825Z,82.52
2022-07-31T23:40:27.713Z,82.39
2022-07-31T23:42:54.618Z,82.46
2022-07-31T23:45:23.399Z,82.80
2022-07-31T23:47:50.925Z,82.82
2022-07-31T23:50:17.935Z,82.59
2022-07-31T23:52:45.461Z,82.35
2022-07-31T23:55:13.160Z,82.59
2022-07-31T23:57:40.683Z,82.89
